sensor_id;sensor_type;location;lat;lon;timestamp;P1;durP1;ratioP1;P2;durP2;ratioP2
49730;SDS011;35622;52.008;5.426;2022-10-26T00:01:28;15.73;;;8.32;;
49730;SDS011;35622;52.008;5.426;2022-10-26T00:03:54;17.60;;;9.07;;
49730;SDS011;35622;52.008;5.426;2022-10-26T00:06:21;20.48;;;9.15;;
49730;SDS011;35622;52.008;5.426;2022-10-26T00:08:49;23.63;;;10.07;;
49730;SDS011;35622;52.008;5.426;2022-10-26T00:11:16;21.65;;;9.38;;
49730;SDS011;35622;52.008;5.426;2022-10-26T00:13:43;18.42;;;8.80;;
49730;SDS011;35622;52.008;5.426;2022-10-26T00:16:10;21.90;;;9.10;;
49730;SDS011;35622;52.008;5.426;2022-10-26T00:18:42;22.08;;;8.85;;
49730;SDS011;35622;52.008;5.426;2022-10-26T00:21:08;19.17;;;9.68;;
49730;SDS011;35622;52.008;5.426;2022-10-26T00:23:34;19.63;;;9.82;;
49730;SDS011;35622;52.008;5.426;2022-10-26T00:26:00;19.70;;;9.57;;
49730;SDS011;35622;52.008;5.426;2022-10-26T00:28:26;20.55;;;9.80;;
49730;SDS011;35622;52.008;5.426;2022-10-26T00:30:52;36.58;;;10.30;;
49730;SDS011;35622;52.008;5.426;2022-10-26T00:33:18;20.73;;;9.45;;
49730;SDS011;35622;52.008;5.426;2022-10-26T00:35:46;17.83;;;8.82;;
49730;SDS011;35622;52.008;5.426;2022-10-26T00:38:13;17.00;;;8.40;;
49730;SDS011;35622;52.008;5.426;2022-10-26T00:40:39;17.35;;;9.55;;
49730;SDS011;35622;52.008;5.426;2022-10-26T00:45:45;18.50;;;9.48;;
49730;SDS011;35622;52.008;5.426;2022-10-26T00:48:15;14.32;;;8.93;;
49730;SDS011;35622;52.008;5.426;2022-10-26T00:50:48;20.15;;;9.85;;
49730;SDS011;35622;52.008;5.426;2022-10-26T00:53:16;21.63;;;9.68;;
49730;SDS011;35622;52.008;5.426;2022-10-26T00:55:46;17.98;;;8.82;;
49730;SDS011;35622;52.008;5.426;2022-10-26T00:58:14;22.27;;;9.75;;
49730;SDS011;35622;52.008;5.426;2022-10-26T01:00:41;18.65;;;8.25;;
49730;SDS011;35622;52.008;5.426;2022-10-26T01:03:08;14.90;;;8.48;;
49730;SDS011;35622;52.008;5.426;2022-10-26T01:05:35;16.05;;;8.80;;
49730;SDS011;35622;52.008;5.426;2022-10-26T01:08:03;12.80;;;8.93;;
49730;SDS011;35622;52.008;5.426;2022-10-26T01:10:31;13.95;;;8.80;;
49730;SDS011;35622;52.008;5.426;2022-10-26T01:12:58;20.00;;;8.52;;
49730;SDS011;35622;52.008;5.426;2022-10-26T01:15:29;15.90;;;8.48;;
49730;SDS011;35622;52.008;5.426;2022-10-26T01:21:13;13.05;;;8.43;;
49730;SDS011;35622;52.008;5.426;2022-10-26T01:26:45;17.25;;;8.63;;
49730;SDS011;35622;52.008;5.426;2022-10-26T01:32:09;16.15;;;7.78;;
49730;SDS011;35622;52.008;5.426;2022-10-26T01:37:32;13.68;;;7.00;;
49730;SDS011;35622;52.008;5.426;2022-10-26T01:40:15;14.18;;;7.72;;
49730;SDS011;35622;52.008;5.426;2022-10-26T01:42:49;15.40;;;7.20;;
49730;SDS011;35622;52.008;5.426;2022-10-26T01:45:17;21.23;;;7.80;;
49730;SDS011;35622;52.008;5.426;2022-10-26T01:47:43;15.48;;;7.95;;
49730;SDS011;35622;52.008;5.426;2022-10-26T01:50:11;15.18;;;7.57;;
49730;SDS011;35622;52.008;5.426;2022-10-26T01:52:37;13.05;;;7.55;;
49730;SDS011;35622;52.008;5.426;2022-10-26T01:55:37;12.68;;;7.85;;
49730;SDS011;35622;52.008;5.426;2022-10-26T02:01:41;13.18;;;6.80;;
49730;SDS011;35622;52.008;5.426;2022-10-26T02:07:00;10.55;;;7.53;;
49730;SDS011;35622;52.008;5.426;2022-10-26T02:09:40;15.43;;;6.95;;
49730;SDS011;35622;52.008;5.426;2022-10-26T02:15:10;13.27;;;8.02;;
49730;SDS011;35622;52.008;5.426;2022-10-26T02:20:21;16.65;;;9.48;;
49730;SDS011;35622;52.008;5.426;2022-10-26T02:22:55;15.13;;;8.52;;
49730;SDS011;35622;52.008;5.426;2022-10-26T02:25:26;13.15;;;6.63;;
49730;SDS011;35622;52.008;5.426;2022-10-26T02:27:54;13.70;;;7.18;;
49730;SDS011;35622;52.008;5.426;2022-10-26T02:30:24;10.23;;;6.40;;
49730;SDS011;35622;52.008;5.426;2022-10-26T02:32:51;10.50;;;6.47;;
49730;SDS011;35622;52.008;5.426;2022-10-26T02:35:20;14.00;;;7.10;;
49730;SDS011;35622;52.008;5.426;2022-10-26T02:37:49;12.02;;;7.30;;
49730;SDS011;35622;52.008;5.426;2022-10-26T02:40:18;11.43;;;6.90;;
49730;SDS011;35622;52.008;5.426;2022-10-26T02:42:48;10.77;;;6.10;;
49730;SDS011;35622;52.008;5.426;2022-10-26T02:45:16;12.32;;;6.85;;
49730;SDS011;35622;52.008;5.426;2022-10-26T02:47:46;11.38;;;6.25;;
49730;SDS011;35622;52.008;5.426;2022-10-26T02:50:12;9.77;;;5.55;;
49730;SDS011;35622;52.008;5.426;2022-10-26T02:52:50;14.88;;;6.20;;
49730;SDS011;35622;52.008;5.426;2022-10-26T02:55:33;11.55;;;5.85;;
49730;SDS011;35622;52.008;5.426;2022-10-26T02:58:05;17.05;;;5.63;;
49730;SDS011;35622;52.008;5.426;2022-10-26T03:00:36;12.93;;;6.00;;
49730;SDS011;35622;52.008;5.426;2022-10-26T03:03:02;13.52;;;5.40;;
49730;SDS011;35622;52.008;5.426;2022-10-26T03:05:30;9.60;;;5.82;;
49730;SDS011;35622;52.008;5.426;2022-10-26T03:07:57;14.52;;;5.57;;
49730;SDS011;35622;52.008;5.426;2022-10-26T03:10:24;12.50;;;5.22;;
49730;SDS011;35622;52.008;5.426;2022-10-26T03:12:50;12.70;;;5.25;;
49730;SDS011;35622;52.008;5.426;2022-10-26T03:15:16;12.15;;;5.53;;
49730;SDS011;35622;52.008;5.426;2022-10-26T03:17:41;12.38;;;5.82;;
49730;SDS011;35622;52.008;5.426;2022-10-26T03:20:07;13.70;;;5.47;;
49730;SDS011;35622;52.008;5.426;2022-10-26T03:22:33;12.57;;;6.00;;
49730;SDS011;35622;52.008;5.426;2022-10-26T03:24:59;10.75;;;5.60;;
49730;SDS011;35622;52.008;5.426;2022-10-26T03:27:24;14.68;;;5.93;;
49730;SDS011;35622;52.008;5.426;2022-10-26T03:29:51;7.97;;;5.38;;
49730;SDS011;35622;52.008;5.426;2022-10-26T03:32:17;9.38;;;5.20;;
49730;SDS011;35622;52.008;5.426;2022-10-26T03:34:42;11.85;;;5.93;;
49730;SDS011;35622;52.008;5.426;2022-10-26T03:37:08;10.43;;;5.03;;
49730;SDS011;35622;52.008;5.426;2022-10-26T03:39:34;14.38;;;5.90;;
49730;SDS011;35622;52.008;5.426;2022-10-26T03:41:59;13.68;;;6.00;;
49730;SDS011;35622;52.008;5.426;2022-10-26T03:44:25;12.20;;;6.07;;
49730;SDS011;35622;52.008;5.426;2022-10-26T03:46:50;11.60;;;6.10;;
49730;SDS011;35622;52.008;5.426;2022-10-26T03:49:16;11.98;;;6.18;;
49730;SDS011;35622;52.008;5.426;2022-10-26T03:51:41;8.98;;;6.00;;
49730;SDS011;35622;52.008;5.426;2022-10-26T03:54:07;12.73;;;6.72;;
49730;SDS011;35622;52.008;5.426;2022-10-26T03:56:32;10.98;;;6.80;;
49730;SDS011;35622;52.008;5.426;2022-10-26T03:58:58;11.40;;;5.97;;
49730;SDS011;35622;52.008;5.426;2022-10-26T04:01:24;10.63;;;6.70;;
49730;SDS011;35622;52.008;5.426;2022-10-26T04:03:49;12.15;;;6.18;;
49730;SDS011;35622;52.008;5.426;2022-10-26T04:06:15;11.20;;;5.93;;
49730;SDS011;35622;52.008;5.426;2022-10-26T04:08:40;15.13;;;6.30;;
49730;SDS011;35622;52.008;5.426;2022-10-26T04:11:06;12.27;;;6.25;;
49730;SDS011;35622;52.008;5.426;2022-10-26T04:13:31;12.82;;;6.05;;
49730;SDS011;35622;52.008;5.426;2022-10-26T04:15:57;13.57;;;6.57;;
49730;SDS011;35622;52.008;5.426;2022-10-26T04:18:22;14.23;;;7.13;;
49730;SDS011;35622;52.008;5.426;2022-10-26T04:20:48;12.73;;;6.63;;
49730;SDS011;35622;52.008;5.426;2022-10-26T04:23:14;10.50;;;6.30;;
49730;SDS011;35622;52.008;5.426;2022-10-26T04:25:42;11.60;;;6.80;;
49730;SDS011;35622;52.008;5.426;2022-10-26T04:28:08;10.77;;;6.82;;
49730;SDS011;35622;52.008;5.426;2022-10-26T04:30:35;10.25;;;6.97;;
49730;SDS011;35622;52.008;5.426;2022-10-26T04:33:01;14.02;;;7.68;;
49730;SDS011;35622;52.008;5.426;2022-10-26T04:35:28;12.07;;;6.50;;
49730;SDS011;35622;52.008;5.426;2022-10-26T04:37:57;13.27;;;6.30;;
49730;SDS011;35622;52.008;5.426;2022-10-26T04:40:24;11.90;;;6.30;;
49730;SDS011;35622;52.008;5.426;2022-10-26T04:42:49;11.43;;;6.30;;
49730;SDS011;35622;52.008;5.426;2022-10-26T04:45:15;10.75;;;6.75;;
49730;SDS011;35622;52.008;5.426;2022-10-26T04:47:41;10.30;;;6.15;;
49730;SDS011;35622;52.008;5.426;2022-10-26T04:50:07;13.50;;;6.13;;
49730;SDS011;35622;52.008;5.426;2022-10-26T04:52:34;11.32;;;6.32;;
49730;SDS011;35622;52.008;5.426;2022-10-26T04:55:00;10.93;;;6.43;;
49730;SDS011;35622;52.008;5.426;2022-10-26T04:57:29;13.50;;;6.40;;
49730;SDS011;35622;52.008;5.426;2022-10-26T04:59:58;10.65;;;6.40;;
49730;SDS011;35622;52.008;5.426;2022-10-26T05:02:26;10.27;;;5.68;;
49730;SDS011;35622;52.008;5.426;2022-10-26T05:04:52;11.35;;;6.47;;
49730;SDS011;35622;52.008;5.426;2022-10-26T05:07:18;9.15;;;6.07;;
49730;SDS011;35622;52.008;5.426;2022-10-26T05:09:43;10.77;;;5.88;;
49730;SDS011;35622;52.008;5.426;2022-10-26T05:12:09;13.68;;;6.55;;
49730;SDS011;35622;52.008;5.426;2022-10-26T05:14:34;10.55;;;5.68;;
49730;SDS011;35622;52.008;5.426;2022-10-26T05:17:00;12.27;;;6.20;;
49730;SDS011;35622;52.008;5.426;2022-10-26T05:19:25;16.08;;;5.97;;
49730;SDS011;35622;52.008;5.426;2022-10-26T05:21:51;11.00;;;6.13;;
49730;SDS011;35622;52.008;5.426;2022-10-26T05:24:17;8.23;;;5.13;;
49730;SDS011;35622;52.008;5.426;2022-10-26T05:26:43;8.30;;;5.60;;
49730;SDS011;35622;52.008;5.426;2022-10-26T05:29:08;9.15;;;6.10;;
49730;SDS011;35622;52.008;5.426;2022-10-26T05:31:34;11.75;;;6.13;;
49730;SDS011;35622;52.008;5.426;2022-10-26T05:34:00;8.93;;;5.60;;
49730;SDS011;35622;52.008;5.426;2022-10-26T05:36:25;8.90;;;6.00;;
49730;SDS011;35622;52.008;5.426;2022-10-26T05:38:51;9.13;;;5.90;;
49730;SDS011;35622;52.008;5.426;2022-10-26T05:41:16;8.93;;;5.47;;
49730;SDS011;35622;52.008;5.426;2022-10-26T05:43:42;12.05;;;5.80;;
49730;SDS011;35622;52.008;5.426;2022-10-26T05:46:07;10.45;;;5.93;;
49730;SDS011;35622;52.008;5.426;2022-10-26T05:48:33;12.82;;;6.53;;
49730;SDS011;35622;52.008;5.426;2022-10-26T05:50:59;9.82;;;5.72;;
49730;SDS011;35622;52.008;5.426;2022-10-26T05:53:25;12.02;;;6.47;;
49730;SDS011;35622;52.008;5.426;2022-10-26T05:55:51;9.38;;;5.63;;
49730;SDS011;35622;52.008;5.426;2022-10-26T05:58:18;13.82;;;6.32;;
49730;SDS011;35622;52.008;5.426;2022-10-26T06:06:03;10.82;;;6.05;;
49730;SDS011;35622;52.008;5.426;2022-10-26T06:08:30;12.15;;;6.03;;
49730;SDS011;35622;52.008;5.426;2022-10-26T06:10:56;9.30;;;6.65;;
49730;SDS011;35622;52.008;5.426;2022-10-26T06:13:23;13.90;;;5.95;;
49730;SDS011;35622;52.008;5.426;2022-10-26T06:15:52;16.38;;;6.93;;
49730;SDS011;35622;52.008;5.426;2022-10-26T06:18:41;11.13;;;6.72;;
49730;SDS011;35622;52.008;5.426;2022-10-26T06:24:01;11.75;;;6.47;;
49730;SDS011;35622;52.008;5.426;2022-10-26T06:26:57;14.82;;;6.78;;
49730;SDS011;35622;52.008;5.426;2022-10-26T06:32:13;11.38;;;6.43;;
49730;SDS011;35622;52.008;5.426;2022-10-26T06:34:42;11.52;;;6.75;;
49730;SDS011;35622;52.008;5.426;2022-10-26T06:37:11;14.60;;;6.32;;
49730;SDS011;35622;52.008;5.426;2022-10-26T06:39:38;10.35;;;5.90;;
49730;SDS011;35622;52.008;5.426;2022-10-26T06:42:08;13.43;;;6.90;;
49730;SDS011;35622;52.008;5.426;2022-10-26T06:44:35;16.17;;;6.30;;
49730;SDS011;35622;52.008;5.426;2022-10-26T06:47:05;9.95;;;6.53;;
49730;SDS011;35622;52.008;5.426;2022-10-26T06:49:34;9.57;;;6.20;;
49730;SDS011;35622;52.008;5.426;2022-10-26T06:57:16;11.15;;;6.10;;
49730;SDS011;35622;52.008;5.426;2022-10-26T06:59:44;9.50;;;6.68;;
49730;SDS011;35622;52.008;5.426;2022-10-26T07:02:18;9.60;;;5.38;;
49730;SDS011;35622;52.008;5.426;2022-10-26T07:04:44;10.52;;;5.75;;
49730;SDS011;35622;52.008;5.426;2022-10-26T07:07:10;8.60;;;5.97;;
49730;SDS011;35622;52.008;5.426;2022-10-26T07:09:38;12.32;;;5.68;;
49730;SDS011;35622;52.008;5.426;2022-10-26T07:12:04;10.73;;;5.80;;
49730;SDS011;35622;52.008;5.426;2022-10-26T07:14:30;10.25;;;4.70;;
49730;SDS011;35622;52.008;5.426;2022-10-26T07:16:56;8.55;;;5.30;;
49730;SDS011;35622;52.008;5.426;2022-10-26T07:19:21;9.88;;;5.13;;
49730;SDS011;35622;52.008;5.426;2022-10-26T07:21:47;12.30;;;5.22;;
49730;SDS011;35622;52.008;5.426;2022-10-26T07:24:13;9.52;;;5.13;;
49730;SDS011;35622;52.008;5.426;2022-10-26T07:26:39;9.15;;;5.28;;
49730;SDS011;35622;52.008;5.426;2022-10-26T07:29:04;7.82;;;4.93;;
49730;SDS011;35622;52.008;5.426;2022-10-26T07:31:30;11.32;;;5.50;;
49730;SDS011;35622;52.008;5.426;2022-10-26T07:33:55;7.85;;;4.57;;
49730;SDS011;35622;52.008;5.426;2022-10-26T07:36:21;9.85;;;4.65;;
49730;SDS011;35622;52.008;5.426;2022-10-26T07:38:49;9.40;;;5.00;;
49730;SDS011;35622;52.008;5.426;2022-10-26T07:41:16;7.32;;;4.72;;
49730;SDS011;35622;52.008;5.426;2022-10-26T07:43:42;9.02;;;4.20;;
49730;SDS011;35622;52.008;5.426;2022-10-26T07:46:09;10.68;;;4.63;;
49730;SDS011;35622;52.008;5.426;2022-10-26T07:48:35;10.40;;;5.40;;
49730;SDS011;35622;52.008;5.426;2022-10-26T07:51:01;9.77;;;4.35;;
49730;SDS011;35622;52.008;5.426;2022-10-26T07:53:26;9.57;;;5.38;;
49730;SDS011;35622;52.008;5.426;2022-10-26T07:55:53;10.07;;;5.25;;
49730;SDS011;35622;52.008;5.426;2022-10-26T07:58:19;8.85;;;5.50;;
49730;SDS011;35622;52.008;5.426;2022-10-26T08:00:47;10.40;;;4.15;;
49730;SDS011;35622;52.008;5.426;2022-10-26T08:03:14;8.07;;;5.07;;
49730;SDS011;35622;52.008;5.426;2022-10-26T08:05:40;10.10;;;5.30;;
49730;SDS011;35622;52.008;5.426;2022-10-26T08:08:05;8.82;;;4.43;;
49730;SDS011;35622;52.008;5.426;2022-10-26T08:10:31;7.47;;;5.38;;
49730;SDS011;35622;52.008;5.426;2022-10-26T08:12:56;7.95;;;4.40;;
49730;SDS011;35622;52.008;5.426;2022-10-26T08:15:22;6.95;;;5.22;;
49730;SDS011;35622;52.008;5.426;2022-10-26T08:17:47;7.93;;;4.72;;
49730;SDS011;35622;52.008;5.426;2022-10-26T08:20:13;8.80;;;4.65;;
49730;SDS011;35622;52.008;5.426;2022-10-26T08:22:39;11.57;;;4.78;;
49730;SDS011;35622;52.008;5.426;2022-10-26T08:25:04;10.57;;;4.75;;
49730;SDS011;35622;52.008;5.426;2022-10-26T08:27:30;10.02;;;4.63;;
49730;SDS011;35622;52.008;5.426;2022-10-26T08:29:55;8.60;;;5.28;;
49730;SDS011;35622;52.008;5.426;2022-10-26T08:32:21;12.45;;;5.13;;
49730;SDS011;35622;52.008;5.426;2022-10-26T08:34:46;9.52;;;4.80;;
49730;SDS011;35622;52.008;5.426;2022-10-26T08:37:12;9.77;;;5.40;;
49730;SDS011;35622;52.008;5.426;2022-10-26T08:39:37;9.02;;;4.25;;
49730;SDS011;35622;52.008;5.426;2022-10-26T08:42:06;8.27;;;4.32;;
49730;SDS011;35622;52.008;5.426;2022-10-26T08:44:41;9.52;;;4.10;;
49730;SDS011;35622;52.008;5.426;2022-10-26T08:47:18;9.98;;;3.97;;
49730;SDS011;35622;52.008;5.426;2022-10-26T08:50:03;9.32;;;3.72;;
49730;SDS011;35622;52.008;5.426;2022-10-26T08:52:37;8.52;;;3.88;;
49730;SDS011;35622;52.008;5.426;2022-10-26T08:55:10;9.32;;;4.20;;
49730;SDS011;35622;52.008;5.426;2022-10-26T08:57:40;9.25;;;4.25;;
49730;SDS011;35622;52.008;5.426;2022-10-26T09:02:37;9.70;;;4.22;;
49730;SDS011;35622;52.008;5.426;2022-10-26T09:05:02;11.93;;;4.47;;
49730;SDS011;35622;52.008;5.426;2022-10-26T09:12:50;13.27;;;4.50;;
49730;SDS011;35622;52.008;5.426;2022-10-26T09:18:19;9.13;;;4.40;;
49730;SDS011;35622;52.008;5.426;2022-10-26T09:21:25;11.43;;;4.13;;
49730;SDS011;35622;52.008;5.426;2022-10-26T09:26:32;9.68;;;3.35;;
49730;SDS011;35622;52.008;5.426;2022-10-26T09:29:10;7.47;;;3.67;;
49730;SDS011;35622;52.008;5.426;2022-10-26T09:31:39;6.30;;;3.35;;
49730;SDS011;35622;52.008;5.426;2022-10-26T09:34:15;8.43;;;3.50;;
49730;SDS011;35622;52.008;5.426;2022-10-26T09:36:46;10.20;;;3.25;;
49730;SDS011;35622;52.008;5.426;2022-10-26T09:39:18;8.98;;;3.55;;
49730;SDS011;35622;52.008;5.426;2022-10-26T09:42:11;6.20;;;2.80;;
49730;SDS011;35622;52.008;5.426;2022-10-26T09:44:59;7.65;;;3.40;;
49730;SDS011;35622;52.008;5.426;2022-10-26T09:47:49;6.93;;;2.85;;
49730;SDS011;35622;52.008;5.426;2022-10-26T09:50:20;7.75;;;2.60;;
49730;SDS011;35622;52.008;5.426;2022-10-26T09:52:50;9.00;;;3.30;;
49730;SDS011;35622;52.008;5.426;2022-10-26T09:55:15;7.93;;;2.83;;
49730;SDS011;35622;52.008;5.426;2022-10-26T09:57:42;9.40;;;3.50;;
49730;SDS011;35622;52.008;5.426;2022-10-26T10:00:14;10.75;;;2.25;;
49730;SDS011;35622;52.008;5.426;2022-10-26T10:02:42;8.02;;;2.90;;
49730;SDS011;35622;52.008;5.426;2022-10-26T10:05:26;6.13;;;2.90;;
49730;SDS011;35622;52.008;5.426;2022-10-26T10:10:35;7.95;;;3.10;;
49730;SDS011;35622;52.008;5.426;2022-10-26T10:13:14;8.65;;;2.53;;
49730;SDS011;35622;52.008;5.426;2022-10-26T10:15:49;7.72;;;2.80;;
49730;SDS011;35622;52.008;5.426;2022-10-26T10:18:35;9.25;;;2.45;;
49730;SDS011;35622;52.008;5.426;2022-10-26T10:21:03;8.70;;;2.47;;
49730;SDS011;35622;52.008;5.426;2022-10-26T10:23:31;8.95;;;2.55;;
49730;SDS011;35622;52.008;5.426;2022-10-26T10:26:00;11.48;;;2.67;;
49730;SDS011;35622;52.008;5.426;2022-10-26T10:28:31;9.98;;;3.00;;
49730;SDS011;35622;52.008;5.426;2022-10-26T10:31:01;9.57;;;2.92;;
49730;SDS011;35622;52.008;5.426;2022-10-26T10:33:36;10.13;;;2.53;;
49730;SDS011;35622;52.008;5.426;2022-10-26T10:36:05;6.70;;;3.00;;
49730;SDS011;35622;52.008;5.426;2022-10-26T10:38:40;5.38;;;2.50;;
49730;SDS011;35622;52.008;5.426;2022-10-26T10:43:50;7.28;;;2.50;;
49730;SDS011;35622;52.008;5.426;2022-10-26T10:46:25;9.48;;;2.25;;
49730;SDS011;35622;52.008;5.426;2022-10-26T10:48:52;7.60;;;2.85;;
49730;SDS011;35622;52.008;5.426;2022-10-26T10:51:25;8.55;;;2.80;;
49730;SDS011;35622;52.008;5.426;2022-10-26T10:53:54;4.35;;;2.85;;
49730;SDS011;35622;52.008;5.426;2022-10-26T10:58:52;7.95;;;2.80;;
49730;SDS011;35622;52.008;5.426;2022-10-26T11:01:28;9.93;;;2.88;;
49730;SDS011;35622;52.008;5.426;2022-10-26T11:06:53;8.05;;;2.58;;
49730;SDS011;35622;52.008;5.426;2022-10-26T11:09:24;6.93;;;2.50;;
49730;SDS011;35622;52.008;5.426;2022-10-26T11:12:36;9.20;;;2.55;;
49730;SDS011;35622;52.008;5.426;2022-10-26T11:14:58;7.93;;;2.63;;
49730;SDS011;35622;52.008;5.426;2022-10-26T11:17:30;10.48;;;2.60;;
49730;SDS011;35622;52.008;5.426;2022-10-26T11:22:40;10.40;;;3.25;;
49730;SDS011;35622;52.008;5.426;2022-10-26T11:25:36;9.98;;;3.67;;
49730;SDS011;35622;52.008;5.426;2022-10-26T11:30:42;8.70;;;2.88;;
49730;SDS011;35622;52.008;5.426;2022-10-26T11:36:10;9.30;;;4.00;;
49730;SDS011;35622;52.008;5.426;2022-10-26T11:38:48;9.02;;;4.28;;
49730;SDS011;35622;52.008;5.426;2022-10-26T11:49:21;6.95;;;3.88;;
49730;SDS011;35622;52.008;5.426;2022-10-26T11:52:07;11.50;;;4.30;;
49730;SDS011;35622;52.008;5.426;2022-10-26T11:57:17;5.85;;;2.70;;
49730;SDS011;35622;52.008;5.426;2022-10-26T11:59:48;6.43;;;3.33;;
49730;SDS011;35622;52.008;5.426;2022-10-26T12:02:29;7.10;;;2.75;;
49730;SDS011;35622;52.008;5.426;2022-10-26T12:07:31;4.47;;;2.47;;
49730;SDS011;35622;52.008;5.426;2022-10-26T12:09:59;7.80;;;2.67;;
49730;SDS011;35622;52.008;5.426;2022-10-26T12:15:22;7.25;;;2.88;;
49730;SDS011;35622;52.008;5.426;2022-10-26T12:17:57;9.00;;;3.42;;
49730;SDS011;35622;52.008;5.426;2022-10-26T12:23:12;6.38;;;2.83;;
49730;SDS011;35622;52.008;5.426;2022-10-26T12:25:38;11.38;;;2.75;;
49730;SDS011;35622;52.008;5.426;2022-10-26T12:28:04;15.05;;;2.95;;
49730;SDS011;35622;52.008;5.426;2022-10-26T12:30:49;8.63;;;2.90;;
49730;SDS011;35622;52.008;5.426;2022-10-26T12:33:26;8.70;;;2.80;;
49730;SDS011;35622;52.008;5.426;2022-10-26T12:35:53;8.75;;;2.92;;
49730;SDS011;35622;52.008;5.426;2022-10-26T12:51:17;4.32;;;2.58;;
49730;SDS011;35622;52.008;5.426;2022-10-26T12:53:55;5.45;;;2.20;;
49730;SDS011;35622;52.008;5.426;2022-10-26T12:59:36;4.13;;;2.40;;
49730;SDS011;35622;52.008;5.426;2022-10-26T13:02:48;5.20;;;2.42;;
49730;SDS011;35622;52.008;5.426;2022-10-26T13:05:42;10.77;;;2.17;;
49730;SDS011;35622;52.008;5.426;2022-10-26T13:08:26;7.90;;;2.70;;
49730;SDS011;35622;52.008;5.426;2022-10-26T13:11:03;4.43;;;2.45;;
49730;SDS011;35622;52.008;5.426;2022-10-26T13:13:32;9.32;;;2.50;;
49730;SDS011;35622;52.008;5.426;2022-10-26T13:15:59;8.52;;;3.22;;
49730;SDS011;35622;52.008;5.426;2022-10-26T13:18:26;7.00;;;3.28;;
49730;SDS011;35622;52.008;5.426;2022-10-26T13:21:08;4.63;;;2.80;;
49730;SDS011;35622;52.008;5.426;2022-10-26T13:23:38;11.93;;;2.97;;
49730;SDS011;35622;52.008;5.426;2022-10-26T13:26:10;4.63;;;2.05;;
49730;SDS011;35622;52.008;5.426;2022-10-26T13:28:45;10.05;;;3.15;;
49730;SDS011;35622;52.008;5.426;2022-10-26T13:34:02;6.03;;;3.22;;
49730;SDS011;35622;52.008;5.426;2022-10-26T13:36:50;8.63;;;3.20;;
49730;SDS011;35622;52.008;5.426;2022-10-26T13:39:23;12.57;;;3.40;;
49730;SDS011;35622;52.008;5.426;2022-10-26T13:41:55;8.02;;;3.47;;
49730;SDS011;35622;52.008;5.426;2022-10-26T13:44:27;7.53;;;3.22;;
49730;SDS011;35622;52.008;5.426;2022-10-26T13:46:58;7.70;;;4.20;;
49730;SDS011;35622;52.008;5.426;2022-10-26T13:49:28;7.68;;;3.65;;
49730;SDS011;35622;52.008;5.426;2022-10-26T13:51:59;10.57;;;4.32;;
49730;SDS011;35622;52.008;5.426;2022-10-26T13:57:18;14.50;;;4.30;;
49730;SDS011;35622;52.008;5.426;2022-10-26T13:59:51;11.43;;;4.85;;
49730;SDS011;35622;52.008;5.426;2022-10-26T14:04:59;10.88;;;4.75;;
49730;SDS011;35622;52.008;5.426;2022-10-26T14:07:34;7.60;;;4.13;;
49730;SDS011;35622;52.008;5.426;2022-10-26T14:12:55;11.82;;;4.18;;
49730;SDS011;35622;52.008;5.426;2022-10-26T14:15:26;15.75;;;5.18;;
49730;SDS011;35622;52.008;5.426;2022-10-26T14:17:54;10.35;;;4.53;;
49730;SDS011;35622;52.008;5.426;2022-10-26T14:20:22;16.77;;;5.13;;
49730;SDS011;35622;52.008;5.426;2022-10-26T14:22:48;10.77;;;4.38;;
49730;SDS011;35622;52.008;5.426;2022-10-26T14:25:19;6.93;;;3.75;;
49730;SDS011;35622;52.008;5.426;2022-10-26T14:27:50;8.52;;;3.53;;
49730;SDS011;35622;52.008;5.426;2022-10-26T14:30:37;6.60;;;3.13;;
49730;SDS011;35622;52.008;5.426;2022-10-26T14:33:02;8.73;;;3.33;;
49730;SDS011;35622;52.008;5.426;2022-10-26T14:35:48;7.55;;;2.85;;
49730;SDS011;35622;52.008;5.426;2022-10-26T14:38:15;13.85;;;4.00;;
49730;SDS011;35622;52.008;5.426;2022-10-26T14:40:54;16.38;;;3.60;;
49730;SDS011;35622;52.008;5.426;2022-10-26T14:43:21;13.93;;;3.58;;
49730;SDS011;35622;52.008;5.426;2022-10-26T14:45:48;8.40;;;2.47;;
49730;SDS011;35622;52.008;5.426;2022-10-26T14:48:37;8.38;;;2.58;;
49730;SDS011;35622;52.008;5.426;2022-10-26T14:51:08;8.95;;;2.70;;
49730;SDS011;35622;52.008;5.426;2022-10-26T14:53:40;13.43;;;2.92;;
49730;SDS011;35622;52.008;5.426;2022-10-26T14:56:58;13.23;;;3.05;;
49730;SDS011;35622;52.008;5.426;2022-10-26T14:59:11;8.23;;;2.10;;
49730;SDS011;35622;52.008;5.426;2022-10-26T15:02:02;4.60;;;2.00;;
49730;SDS011;35622;52.008;5.426;2022-10-26T15:07:52;15.70;;;2.70;;
49730;SDS011;35622;52.008;5.426;2022-10-26T15:13:38;7.07;;;2.03;;
49730;SDS011;35622;52.008;5.426;2022-10-26T15:15:57;10.48;;;2.17;;
49730;SDS011;35622;52.008;5.426;2022-10-26T15:18:40;12.88;;;2.85;;
49730;SDS011;35622;52.008;5.426;2022-10-26T15:23:56;12.23;;;2.00;;
49730;SDS011;35622;52.008;5.426;2022-10-26T15:26:22;10.75;;;2.53;;
49730;SDS011;35622;52.008;5.426;2022-10-26T15:28:49;14.10;;;2.00;;
49730;SDS011;35622;52.008;5.426;2022-10-26T15:36:17;14.40;;;2.42;;
49730;SDS011;35622;52.008;5.426;2022-10-26T15:38:44;13.57;;;2.33;;
49730;SDS011;35622;52.008;5.426;2022-10-26T15:43:59;9.80;;;2.10;;
49730;SDS011;35622;52.008;5.426;2022-10-26T15:46:33;8.40;;;1.95;;
49730;SDS011;35622;52.008;5.426;2022-10-26T15:49:00;13.02;;;2.15;;
49730;SDS011;35622;52.008;5.426;2022-10-26T15:51:28;7.00;;;2.00;;
49730;SDS011;35622;52.008;5.426;2022-10-26T15:53:58;10.70;;;2.08;;
49730;SDS011;35622;52.008;5.426;2022-10-26T15:56:25;7.28;;;2.17;;
49730;SDS011;35622;52.008;5.426;2022-10-26T15:58:51;9.75;;;1.98;;
49730;SDS011;35622;52.008;5.426;2022-10-26T16:01:19;9.88;;;2.50;;
49730;SDS011;35622;52.008;5.426;2022-10-26T16:03:47;9.80;;;2.13;;
49730;SDS011;35622;52.008;5.426;2022-10-26T16:06:22;11.60;;;2.30;;
49730;SDS011;35622;52.008;5.426;2022-10-26T16:08:55;8.75;;;2.05;;
49730;SDS011;35622;52.008;5.426;2022-10-26T16:11:22;8.27;;;2.20;;
49730;SDS011;35622;52.008;5.426;2022-10-26T16:13:48;11.80;;;2.40;;
49730;SDS011;35622;52.008;5.426;2022-10-26T16:16:14;20.50;;;2.70;;
49730;SDS011;35622;52.008;5.426;2022-10-26T16:18:41;12.13;;;2.30;;
49730;SDS011;35622;52.008;5.426;2022-10-26T16:21:14;19.95;;;3.40;;
49730;SDS011;35622;52.008;5.426;2022-10-26T16:23:41;21.67;;;3.03;;
49730;SDS011;35622;52.008;5.426;2022-10-26T16:26:10;14.45;;;2.60;;
49730;SDS011;35622;52.008;5.426;2022-10-26T16:28:36;16.80;;;2.70;;
49730;SDS011;35622;52.008;5.426;2022-10-26T16:31:06;14.07;;;2.55;;
49730;SDS011;35622;52.008;5.426;2022-10-26T16:33:34;15.30;;;2.92;;
49730;SDS011;35622;52.008;5.426;2022-10-26T16:36:00;15.30;;;3.55;;
49730;SDS011;35622;52.008;5.426;2022-10-26T16:38:29;18.65;;;3.47;;
49730;SDS011;35622;52.008;5.426;2022-10-26T16:41:02;17.85;;;3.30;;
49730;SDS011;35622;52.008;5.426;2022-10-26T16:43:39;10.55;;;2.85;;
49730;SDS011;35622;52.008;5.426;2022-10-26T16:46:07;8.82;;;2.75;;
49730;SDS011;35622;52.008;5.426;2022-10-26T16:48:34;5.97;;;2.70;;
49730;SDS011;35622;52.008;5.426;2022-10-26T16:51:05;9.70;;;2.70;;
49730;SDS011;35622;52.008;5.426;2022-10-26T16:53:31;7.75;;;2.70;;
49730;SDS011;35622;52.008;5.426;2022-10-26T16:56:04;7.25;;;3.10;;
49730;SDS011;35622;52.008;5.426;2022-10-26T16:58:32;6.03;;;2.60;;
49730;SDS011;35622;52.008;5.426;2022-10-26T17:00:57;9.73;;;3.13;;
49730;SDS011;35622;52.008;5.426;2022-10-26T17:03:23;10.43;;;3.78;;
49730;SDS011;35622;52.008;5.426;2022-10-26T17:05:59;11.95;;;2.97;;
49730;SDS011;35622;52.008;5.426;2022-10-26T17:08:26;11.68;;;2.80;;
49730;SDS011;35622;52.008;5.426;2022-10-26T17:10:53;11.63;;;3.10;;
49730;SDS011;35622;52.008;5.426;2022-10-26T17:13:19;8.30;;;3.10;;
49730;SDS011;35622;52.008;5.426;2022-10-26T17:15:53;12.20;;;3.49;;